sensor_id;sensor_type;location;lat;lon;timestamp;P1;durP1;ratioP1;P2;durP2;ratioP2
68507;SDS011;55510;49.560;19.090;2023-06-05T00:00:11;14.30;;;5.97;;
68507;SDS011;55510;49.560;19.090;2023-06-05T00:03:13;15.70;;;5.85;;
68507;SDS011;55510;49.560;19.090;2023-06-05T00:06:13;10.27;;;5.80;;
68507;SDS011;55510;49.560;19.090;2023-06-05T00:09:14;10.68;;;5.18;;
68507;SDS011;55510;49.560;19.090;2023-06-05T00:12:15;10.30;;;5.17;;
68507;SDS011;55510;49.560;19.090;2023-06-05T00:15:15;10.00;;;4.50;;
68507;SDS011;55510;49.560;19.090;2023-06-05T00:18:16;9.90;;;4.23;;
68507;SDS011;55510;49.560;19.090;2023-06-05T00:21:18;8.15;;;3.58;;
68507;SDS011;55510;49.560;19.090;2023-06-05T00:24:22;8.32;;;4.30;;
68507;SDS011;55510;49.560;19.090;2023-06-05T00:27:23;9.23;;;3.93;;
68507;SDS011;55510;49.560;19.090;2023-06-05T00:30:23;10.32;;;4.55;;
68507;SDS011;55510;49.560;19.090;2023-06-05T00:33:24;7.83;;;4.07;;
68507;SDS011;55510;49.560;19.090;2023-06-05T00:36:25;8.88;;;4.35;;
68507;SDS011;55510;49.560;19.090;2023-06-05T00:39:26;10.47;;;4.93;;
68507;SDS011;55510;49.560;19.090;2023-06-05T00:42:26;8.83;;;5.00;;
68507;SDS011;55510;49.560;19.090;2023-06-05T00:45:27;11.30;;;5.68;;
68507;SDS011;55510;49.560;19.090;2023-06-05T00:48:28;9.40;;;4.90;;
68507;SDS011;55510;49.560;19.090;2023-06-05T00:51:30;8.53;;;4.67;;
68507;SDS011;55510;49.560;19.090;2023-06-05T00:54:30;8.37;;;3.77;;
68507;SDS011;55510;49.560;19.090;2023-06-05T00:57:31;9.48;;;3.92;;
68507;SDS011;55510;49.560;19.090;2023-06-05T01:00:34;8.80;;;4.00;;
68507;SDS011;55510;49.560;19.090;2023-06-05T01:03:36;9.35;;;4.10;;
68507;SDS011;55510;49.560;19.090;2023-06-05T01:06:39;9.18;;;4.45;;
68507;SDS011;55510;49.560;19.090;2023-06-05T01:09:44;9.07;;;4.65;;
68507;SDS011;55510;49.560;19.090;2023-06-05T01:16:01;8.07;;;3.72;;
68507;SDS011;55510;49.560;19.090;2023-06-05T01:19:04;10.48;;;4.68;;
68507;SDS011;55510;49.560;19.090;2023-06-05T01:22:07;10.63;;;4.47;;
68507;SDS011;55510;49.560;19.090;2023-06-05T01:25:08;9.50;;;4.87;;
68507;SDS011;55510;49.560;19.090;2023-06-05T01:28:16;12.03;;;5.67;;
68507;SDS011;55510;49.560;19.090;2023-06-05T01:31:20;9.43;;;4.25;;
68507;SDS011;55510;49.560;19.090;2023-06-05T01:34:23;9.70;;;5.10;;
68507;SDS011;55510;49.560;19.090;2023-06-05T01:37:26;8.82;;;4.63;;
68507;SDS011;55510;49.560;19.090;2023-06-05T01:40:29;8.57;;;4.57;;
68507;SDS011;55510;49.560;19.090;2023-06-05T01:43:31;8.60;;;4.57;;
68507;SDS011;55510;49.560;19.090;2023-06-05T01:46:33;9.93;;;4.55;;
68507;SDS011;55510;49.560;19.090;2023-06-05T01:49:34;7.72;;;4.10;;
68507;SDS011;55510;49.560;19.090;2023-06-05T01:52:35;8.00;;;3.77;;
68507;SDS011;55510;49.560;19.090;2023-06-05T01:55:36;9.27;;;3.73;;
68507;SDS011;55510;49.560;19.090;2023-06-05T01:58:39;10.32;;;4.00;;
68507;SDS011;55510;49.560;19.090;2023-06-05T02:01:39;7.83;;;4.03;;
68507;SDS011;55510;49.560;19.090;2023-06-05T02:04:41;7.72;;;3.53;;
68507;SDS011;55510;49.560;19.090;2023-06-05T02:07:44;8.27;;;3.80;;
68507;SDS011;55510;49.560;19.090;2023-06-05T02:10:55;7.20;;;3.65;;
68507;SDS011;55510;49.560;19.090;2023-06-05T02:13:56;9.27;;;4.43;;
68507;SDS011;55510;49.560;19.090;2023-06-05T02:16:57;8.60;;;4.18;;
68507;SDS011;55510;49.560;19.090;2023-06-05T02:19:58;7.10;;;4.05;;
68507;SDS011;55510;49.560;19.090;2023-06-05T02:22:58;9.90;;;4.77;;
68507;SDS011;55510;49.560;19.090;2023-06-05T02:25:59;8.68;;;4.65;;
68507;SDS011;55510;49.560;19.090;2023-06-05T02:29:00;9.37;;;4.67;;
68507;SDS011;55510;49.560;19.090;2023-06-05T02:32:01;10.52;;;4.88;;
68507;SDS011;55510;49.560;19.090;2023-06-05T02:35:02;10.20;;;5.13;;
68507;SDS011;55510;49.560;19.090;2023-06-05T02:38:04;10.53;;;5.40;;
68507;SDS011;55510;49.560;19.090;2023-06-05T02:41:07;12.53;;;5.30;;
68507;SDS011;55510;49.560;19.090;2023-06-05T02:44:09;8.93;;;5.00;;
68507;SDS011;55510;49.560;19.090;2023-06-05T02:47:10;9.40;;;4.82;;
68507;SDS011;55510;49.560;19.090;2023-06-05T02:50:11;10.67;;;4.83;;
68507;SDS011;55510;49.560;19.090;2023-06-05T02:53:12;12.18;;;5.53;;
68507;SDS011;55510;49.560;19.090;2023-06-05T02:56:12;12.90;;;6.20;;
68507;SDS011;55510;49.560;19.090;2023-06-05T02:59:13;8.88;;;4.50;;
68507;SDS011;55510;49.560;19.090;2023-06-05T03:02:15;11.88;;;5.22;;
68507;SDS011;55510;49.560;19.090;2023-06-05T03:05:16;11.43;;;5.72;;
68507;SDS011;55510;49.560;19.090;2023-06-05T03:08:27;10.20;;;4.73;;
68507;SDS011;55510;49.560;19.090;2023-06-05T03:11:28;12.30;;;4.90;;
68507;SDS011;55510;49.560;19.090;2023-06-05T03:14:28;10.55;;;3.70;;
68507;SDS011;55510;49.560;19.090;2023-06-05T03:17:31;9.00;;;4.20;;
68507;SDS011;55510;49.560;19.090;2023-06-05T03:20:32;7.68;;;3.33;;
68507;SDS011;55510;49.560;19.090;2023-06-05T03:23:32;9.83;;;5.30;;
68507;SDS011;55510;49.560;19.090;2023-06-05T03:26:33;9.98;;;4.30;;
68507;SDS011;55510;49.560;19.090;2023-06-05T03:29:34;11.50;;;3.63;;
68507;SDS011;55510;49.560;19.090;2023-06-05T03:32:34;7.82;;;3.45;;
68507;SDS011;55510;49.560;19.090;2023-06-05T03:35:35;8.53;;;3.73;;
68507;SDS011;55510;49.560;19.090;2023-06-05T03:38:36;9.65;;;3.60;;
68507;SDS011;55510;49.560;19.090;2023-06-05T03:41:37;8.20;;;3.27;;
68507;SDS011;55510;49.560;19.090;2023-06-05T03:44:37;8.60;;;4.17;;
68507;SDS011;55510;49.560;19.090;2023-06-05T03:47:38;8.70;;;3.40;;
68507;SDS011;55510;49.560;19.090;2023-06-05T03:50:39;7.80;;;3.20;;
68507;SDS011;55510;49.560;19.090;2023-06-05T03:53:41;7.70;;;2.77;;
68507;SDS011;55510;49.560;19.090;2023-06-05T03:56:43;8.55;;;3.80;;
68507;SDS011;55510;49.560;19.090;2023-06-05T03:59:49;9.52;;;3.78;;
68507;SDS011;55510;49.560;19.090;2023-06-05T04:02:50;9.33;;;4.33;;
68507;SDS011;55510;49.560;19.090;2023-06-05T04:05:51;15.80;;;6.43;;
68507;SDS011;55510;49.560;19.090;2023-06-05T04:08:51;14.07;;;5.20;;
68507;SDS011;55510;49.560;19.090;2023-06-05T04:11:52;10.85;;;5.45;;
68507;SDS011;55510;49.560;19.090;2023-06-05T04:14:53;10.25;;;3.70;;
68507;SDS011;55510;49.560;19.090;2023-06-05T04:17:54;6.83;;;3.17;;
68507;SDS011;55510;49.560;19.090;2023-06-05T04:20:55;9.50;;;3.85;;
68507;SDS011;55510;49.560;19.090;2023-06-05T04:23:56;7.90;;;3.13;;
68507;SDS011;55510;49.560;19.090;2023-06-05T04:26:57;8.47;;;3.00;;
68507;SDS011;55510;49.560;19.090;2023-06-05T04:30:01;6.13;;;2.80;;
68507;SDS011;55510;49.560;19.090;2023-06-05T04:33:01;9.37;;;3.10;;
68507;SDS011;55510;49.560;19.090;2023-06-05T04:36:03;8.02;;;3.63;;
68507;SDS011;55510;49.560;19.090;2023-06-05T04:39:05;8.80;;;2.75;;
68507;SDS011;55510;49.560;19.090;2023-06-05T04:42:07;5.97;;;3.10;;
68507;SDS011;55510;49.560;19.090;2023-06-05T04:45:09;7.43;;;2.93;;
68507;SDS011;55510;49.560;19.090;2023-06-05T04:48:10;6.50;;;2.92;;
68507;SDS011;55510;49.560;19.090;2023-06-05T04:51:11;6.40;;;2.60;;
68507;SDS011;55510;49.560;19.090;2023-06-05T04:54:12;6.72;;;3.15;;
68507;SDS011;55510;49.560;19.090;2023-06-05T04:57:13;5.32;;;2.50;;
68507;SDS011;55510;49.560;19.090;2023-06-05T05:00:17;5.97;;;3.03;;
68507;SDS011;55510;49.560;19.090;2023-06-05T05:03:17;5.43;;;2.10;;
68507;SDS011;55510;49.560;19.090;2023-06-05T05:06:21;5.38;;;2.10;;
68507;SDS011;55510;49.560;19.090;2023-06-05T05:09:21;6.10;;;2.27;;
68507;SDS011;55510;49.560;19.090;2023-06-05T05:12:22;8.07;;;3.13;;
68507;SDS011;55510;49.560;19.090;2023-06-05T05:15:23;9.32;;;2.88;;
68507;SDS011;55510;49.560;19.090;2023-06-05T05:18:24;6.43;;;2.80;;
68507;SDS011;55510;49.560;19.090;2023-06-05T05:21:24;7.20;;;2.60;;
68507;SDS011;55510;49.560;19.090;2023-06-05T05:24:26;7.73;;;3.60;;
68507;SDS011;55510;49.560;19.090;2023-06-05T05:27:26;7.47;;;3.03;;
68507;SDS011;55510;49.560;19.090;2023-06-05T05:30:27;5.87;;;2.57;;
68507;SDS011;55510;49.560;19.090;2023-06-05T05:33:30;5.40;;;1.90;;
68507;SDS011;55510;49.560;19.090;2023-06-05T05:36:31;9.00;;;2.97;;
68507;SDS011;55510;49.560;19.090;2023-06-05T05:39:33;5.75;;;2.60;;
68507;SDS011;55510;49.560;19.090;2023-06-05T05:42:34;6.33;;;2.37;;
68507;SDS011;55510;49.560;19.090;2023-06-05T05:45:35;12.60;;;4.47;;
68507;SDS011;55510;49.560;19.090;2023-06-05T05:48:38;7.13;;;2.63;;
68507;SDS011;55510;49.560;19.090;2023-06-05T05:51:39;7.43;;;2.93;;
68507;SDS011;55510;49.560;19.090;2023-06-05T05:54:40;6.93;;;2.72;;
68507;SDS011;55510;49.560;19.090;2023-06-05T05:57:41;7.63;;;2.97;;
68507;SDS011;55510;49.560;19.090;2023-06-05T06:00:41;5.45;;;2.47;;
68507;SDS011;55510;49.560;19.090;2023-06-05T06:03:43;5.55;;;2.15;;
68507;SDS011;55510;49.560;19.090;2023-06-05T06:06:44;10.87;;;2.87;;
68507;SDS011;55510;49.560;19.090;2023-06-05T06:09:48;8.38;;;3.38;;
68507;SDS011;55510;49.560;19.090;2023-06-05T06:12:48;9.95;;;3.60;;
68507;SDS011;55510;49.560;19.090;2023-06-05T06:15:49;8.27;;;3.20;;
68507;SDS011;55510;49.560;19.090;2023-06-05T06:18:50;8.23;;;2.40;;
68507;SDS011;55510;49.560;19.090;2023-06-05T06:21:52;6.80;;;1.90;;
68507;SDS011;55510;49.560;19.090;2023-06-05T06:24:52;5.63;;;2.33;;
68507;SDS011;55510;49.560;19.090;2023-06-05T06:27:57;5.78;;;2.30;;
68507;SDS011;55510;49.560;19.090;2023-06-05T06:31:00;5.63;;;2.22;;
68507;SDS011;55510;49.560;19.090;2023-06-05T06:34:01;5.57;;;1.80;;
68507;SDS011;55510;49.560;19.090;2023-06-05T06:37:01;4.47;;;1.80;;
68507;SDS011;55510;49.560;19.090;2023-06-05T06:40:03;4.03;;;1.50;;
68507;SDS011;55510;49.560;19.090;2023-06-05T06:43:09;4.40;;;1.87;;
68507;SDS011;55510;49.560;19.090;2023-06-05T06:46:09;5.97;;;1.37;;
68507;SDS011;55510;49.560;19.090;2023-06-05T06:49:10;3.53;;;1.30;;
68507;SDS011;55510;49.560;19.090;2023-06-05T06:52:11;4.10;;;1.27;;
68507;SDS011;55510;49.560;19.090;2023-06-05T06:55:12;3.53;;;1.27;;
68507;SDS011;55510;49.560;19.090;2023-06-05T06:58:12;4.33;;;1.83;;
68507;SDS011;55510;49.560;19.090;2023-06-05T07:01:13;7.70;;;2.40;;
68507;SDS011;55510;49.560;19.090;2023-06-05T07:04:15;4.95;;;1.55;;
68507;SDS011;55510;49.560;19.090;2023-06-05T07:07:20;5.18;;;1.40;;
68507;SDS011;55510;49.560;19.090;2023-06-05T07:10:25;3.90;;;1.20;;
68507;SDS011;55510;49.560;19.090;2023-06-05T07:13:26;5.72;;;1.25;;
68507;SDS011;55510;49.560;19.090;2023-06-05T07:16:26;5.33;;;1.40;;
68507;SDS011;55510;49.560;19.090;2023-06-05T07:19:27;10.18;;;1.70;;
68507;SDS011;55510;49.560;19.090;2023-06-05T07:22:29;4.97;;;1.90;;
68507;SDS011;55510;49.560;19.090;2023-06-05T07:25:30;5.65;;;1.35;;
68507;SDS011;55510;49.560;19.090;2023-06-05T07:28:32;4.75;;;1.33;;
68507;SDS011;55510;49.560;19.090;2023-06-05T07:31:32;4.95;;;1.48;;
68507;SDS011;55510;49.560;19.090;2023-06-05T07:34:33;4.23;;;1.33;;
68507;SDS011;55510;49.560;19.090;2023-06-05T07:37:35;7.22;;;1.70;;
68507;SDS011;55510;49.560;19.090;2023-06-05T07:40:36;4.22;;;0.95;;
68507;SDS011;55510;49.560;19.090;2023-06-05T07:43:37;3.80;;;1.20;;
68507;SDS011;55510;49.560;19.090;2023-06-05T07:46:40;3.20;;;1.30;;
68507;SDS011;55510;49.560;19.090;2023-06-05T07:49:42;4.63;;;1.48;;
68507;SDS011;55510;49.560;19.090;2023-06-05T07:52:42;4.67;;;1.40;;
68507;SDS011;55510;49.560;19.090;2023-06-05T07:55:43;3.83;;;1.73;;
68507;SDS011;55510;49.560;19.090;2023-06-05T07:58:44;6.10;;;1.60;;
68507;SDS011;55510;49.560;19.090;2023-06-05T08:01:45;6.35;;;2.25;;
68507;SDS011;55510;49.560;19.090;2023-06-05T08:04:45;7.87;;;2.20;;
68507;SDS011;55510;49.560;19.090;2023-06-05T08:07:47;8.23;;;1.88;;
68507;SDS011;55510;49.560;19.090;2023-06-05T08:10:47;5.33;;;2.20;;
68507;SDS011;55510;49.560;19.090;2023-06-05T08:13:48;5.82;;;1.98;;
68507;SDS011;55510;49.560;19.090;2023-06-05T08:16:48;5.43;;;2.27;;
68507;SDS011;55510;49.560;19.090;2023-06-05T08:19:49;5.13;;;2.28;;
68507;SDS011;55510;49.560;19.090;2023-06-05T08:22:50;7.07;;;1.80;;
68507;SDS011;55510;49.560;19.090;2023-06-05T08:25:51;5.18;;;1.83;;
68507;SDS011;55510;49.560;19.090;2023-06-05T08:28:51;4.43;;;1.47;;
68507;SDS011;55510;49.560;19.090;2023-06-05T08:31:52;3.77;;;1.37;;
68507;SDS011;55510;49.560;19.090;2023-06-05T08:34:52;3.88;;;1.55;;
68507;SDS011;55510;49.560;19.090;2023-06-05T08:37:53;4.43;;;1.90;;
68507;SDS011;55510;49.560;19.090;2023-06-05T08:40:59;4.15;;;1.50;;
68507;SDS011;55510;49.560;19.090;2023-06-05T08:44:02;3.87;;;1.50;;
68507;SDS011;55510;49.560;19.090;2023-06-05T08:47:03;4.85;;;1.80;;
68507;SDS011;55510;49.560;19.090;2023-06-05T08:50:05;3.53;;;1.50;;
68507;SDS011;55510;49.560;19.090;2023-06-05T08:53:06;4.70;;;1.77;;
68507;SDS011;55510;49.560;19.090;2023-06-05T08:56:07;7.38;;;2.17;;
68507;SDS011;55510;49.560;19.090;2023-06-05T08:59:08;5.55;;;2.10;;
68507;SDS011;55510;49.560;19.090;2023-06-05T09:02:15;5.07;;;2.17;;
68507;SDS011;55510;49.560;19.090;2023-06-05T09:05:16;5.03;;;2.00;;
68507;SDS011;55510;49.560;19.090;2023-06-05T09:08:17;11.68;;;2.17;;
68507;SDS011;55510;49.560;19.090;2023-06-05T09:11:30;4.77;;;1.80;;
68507;SDS011;55510;49.560;19.090;2023-06-05T09:14:32;6.40;;;1.90;;
68507;SDS011;55510;49.560;19.090;2023-06-05T09:17:33;4.53;;;1.77;;
68507;SDS011;55510;49.560;19.090;2023-06-05T09:20:35;4.88;;;1.80;;
68507;SDS011;55510;49.560;19.090;2023-06-05T09:23:37;5.60;;;1.70;;
68507;SDS011;55510;49.560;19.090;2023-06-05T09:29:49;5.35;;;1.80;;
68507;SDS011;55510;49.560;19.090;2023-06-05T09:33:09;5.32;;;2.25;;
68507;SDS011;55510;49.560;19.090;2023-06-05T09:36:11;4.00;;;1.80;;
68507;SDS011;55510;49.560;19.090;2023-06-05T09:39:16;4.78;;;1.70;;
68507;SDS011;55510;49.560;19.090;2023-06-05T09:42:19;8.63;;;1.93;;
68507;SDS011;55510;49.560;19.090;2023-06-05T09:45:41;5.90;;;2.20;;
68507;SDS011;55510;49.560;19.090;2023-06-05T09:48:43;5.63;;;2.53;;
68507;SDS011;55510;49.560;19.090;2023-06-05T09:51:58;6.03;;;2.42;;
68507;SDS011;55510;49.560;19.090;2023-06-05T09:54:59;6.93;;;2.30;;
68507;SDS011;55510;49.560;19.090;2023-06-05T09:58:04;6.17;;;2.30;;
68507;SDS011;55510;49.560;19.090;2023-06-05T10:01:17;5.47;;;2.40;;
68507;SDS011;55510;49.560;19.090;2023-06-05T10:04:23;4.28;;;2.17;;
68507;SDS011;55510;49.560;19.090;2023-06-05T10:07:26;5.22;;;2.20;;
68507;SDS011;55510;49.560;19.090;2023-06-05T10:10:29;9.10;;;2.10;;
68507;SDS011;55510;49.560;19.090;2023-06-05T10:13:30;4.37;;;2.10;;
68507;SDS011;55510;49.560;19.090;2023-06-05T10:16:31;5.63;;;2.15;;
68507;SDS011;55510;49.560;19.090;2023-06-05T10:19:33;4.28;;;1.88;;
68507;SDS011;55510;49.560;19.090;2023-06-05T10:22:35;5.78;;;2.05;;
68507;SDS011;55510;49.560;19.090;2023-06-05T10:25:40;4.68;;;1.40;;
68507;SDS011;55510;49.560;19.090;2023-06-05T10:28:51;4.40;;;1.80;;
68507;SDS011;55510;49.560;19.090;2023-06-05T10:31:56;6.43;;;2.92;;
68507;SDS011;55510;49.560;19.090;2023-06-05T10:38:21;3.97;;;1.90;;
68507;SDS011;55510;49.560;19.090;2023-06-05T10:41:24;6.00;;;2.72;;
68507;SDS011;55510;49.560;19.090;2023-06-05T10:44:38;5.97;;;2.53;;
68507;SDS011;55510;49.560;19.090;2023-06-05T10:47:49;6.47;;;2.28;;
68507;SDS011;55510;49.560;19.090;2023-06-05T10:50:51;4.20;;;1.70;;
68507;SDS011;55510;49.560;19.090;2023-06-05T10:53:51;15.32;;;6.57;;
68507;SDS011;55510;49.560;19.090;2023-06-05T11:00:04;6.05;;;2.80;;
68507;SDS011;55510;49.560;19.090;2023-06-05T11:03:11;4.97;;;2.27;;
68507;SDS011;55510;49.560;19.090;2023-06-05T11:06:12;4.63;;;2.15;;
68507;SDS011;55510;49.560;19.090;2023-06-05T11:09:13;7.13;;;2.17;;
68507;SDS011;55510;49.560;19.090;2023-06-05T11:12:15;5.28;;;1.92;;
68507;SDS011;55510;49.560;19.090;2023-06-05T11:15:16;4.63;;;1.92;;
68507;SDS011;55510;49.560;19.090;2023-06-05T11:18:36;12.63;;;6.33;;
68507;SDS011;55510;49.560;19.090;2023-06-05T11:28:37;8.07;;;4.90;;
68507;SDS011;55510;49.560;19.090;2023-06-05T11:31:45;19.50;;;9.10;;
68507;SDS011;55510;49.560;19.090;2023-06-05T11:34:46;9.10;;;4.90;;
68507;SDS011;55510;49.560;19.090;2023-06-05T11:37:47;6.87;;;2.70;;
68507;SDS011;55510;49.560;19.090;2023-06-05T11:40:48;4.15;;;2.10;;
68507;SDS011;55510;49.560;19.090;2023-06-05T11:43:49;5.87;;;2.00;;
68507;SDS011;55510;49.560;19.090;2023-06-05T11:46:50;4.50;;;2.17;;
68507;SDS011;55510;49.560;19.090;2023-06-05T11:49:50;4.63;;;2.30;;
68507;SDS011;55510;49.560;19.090;2023-06-05T11:52:51;4.20;;;2.25;;
68507;SDS011;55510;49.560;19.090;2023-06-05T11:55:52;5.13;;;2.60;;
68507;SDS011;55510;49.560;19.090;2023-06-05T11:58:53;5.50;;;1.90;;
68507;SDS011;55510;49.560;19.090;2023-06-05T12:01:54;4.10;;;2.10;;
68507;SDS011;55510;49.560;19.090;2023-06-05T12:04:55;4.33;;;1.80;;
68507;SDS011;55510;49.560;19.090;2023-06-05T12:07:57;4.75;;;1.60;;
68507;SDS011;55510;49.560;19.090;2023-06-05T12:10:59;3.67;;;1.63;;
68507;SDS011;55510;49.560;19.090;2023-06-05T12:14:00;4.83;;;1.73;;
68507;SDS011;55510;49.560;19.090;2023-06-05T12:17:10;4.13;;;1.80;;
68507;SDS011;55510;49.560;19.090;2023-06-05T12:20:11;5.05;;;1.70;;
68507;SDS011;55510;49.560;19.090;2023-06-05T12:23:33;4.77;;;2.47;;
68507;SDS011;55510;49.560;19.090;2023-06-05T12:26:52;4.95;;;2.28;;
68507;SDS011;55510;49.560;19.090;2023-06-05T12:29:54;5.20;;;2.42;;
68507;SDS011;55510;49.560;19.090;2023-06-05T12:33:03;6.35;;;2.00;;
68507;SDS011;55510;49.560;19.090;2023-06-05T12:39:05;4.67;;;1.87;;
68507;SDS011;55510;49.560;19.090;2023-06-05T12:42:06;4.43;;;2.05;;
68507;SDS011;55510;49.560;19.090;2023-06-05T12:45:08;7.85;;;4.05;;
68507;SDS011;55510;49.560;19.090;2023-06-05T12:48:09;5.53;;;2.10;;
68507;SDS011;55510;49.560;19.090;2023-06-05T12:51:10;6.43;;;2.40;;
68507;SDS011;55510;49.560;19.090;2023-06-05T12:54:11;4.90;;;2.50;;
68507;SDS011;55510;49.560;19.090;2023-06-05T12:57:12;6.33;;;3.03;;
68507;SDS011;55510;49.560;19.090;2023-06-05T13:00:12;6.15;;;2.20;;
68507;SDS011;55510;49.560;19.090;2023-06-05T13:03:14;6.20;;;1.80;;
68507;SDS011;55510;49.560;19.090;2023-06-05T13:06:17;4.60;;;1.90;;
68507;SDS011;55510;49.560;19.090;2023-06-05T13:09:18;4.18;;;1.73;;
68507;SDS011;55510;49.560;19.090;2023-06-05T13:12:18;3.67;;;1.67;;
68507;SDS011;55510;49.560;19.090;2023-06-05T13:15:19;3.88;;;1.83;;
68507;SDS011;55510;49.560;19.090;2023-06-05T13:18:20;3.70;;;1.90;;
68507;SDS011;55510;49.560;19.090;2023-06-05T13:21:21;4.63;;;1.90;;
68507;SDS011;55510;49.560;19.090;2023-06-05T13:24:25;4.55;;;1.75;;
68507;SDS011;55510;49.560;19.090;2023-06-05T13:27:26;3.63;;;1.80;;
68507;SDS011;55510;49.560;19.090;2023-06-05T13:30:26;4.13;;;2.03;;
68507;SDS011;55510;49.560;19.090;2023-06-05T13:33:27;6.93;;;3.33;;
68507;SDS011;55510;49.560;19.090;2023-06-05T13:36:28;7.33;;;3.10;;
68507;SDS011;55510;49.560;19.090;2023-06-05T13:39:29;6.87;;;2.43;;
68507;SDS011;55510;49.560;19.090;2023-06-05T13:42:29;5.05;;;2.50;;
68507;SDS011;55510;49.560;19.090;2023-06-05T13:45:30;4.90;;;2.27;;
68507;SDS011;55510;49.560;19.090;2023-06-05T13:48:31;5.50;;;2.90;;
68507;SDS011;55510;49.560;19.090;2023-06-05T13:51:34;5.10;;;2.10;;
68507;SDS011;55510;49.560;19.090;2023-06-05T13:54:38;6.25;;;2.20;;
68507;SDS011;55510;49.560;19.090;2023-06-05T13:57:39;4.65;;;2.08;;
68507;SDS011;55510;49.560;19.090;2023-06-05T14:00:39;5.10;;;2.10;;
68507;SDS011;55510;49.560;19.090;2023-06-05T14:03:40;4.10;;;1.80;;
68507;SDS011;55510;49.560;19.090;2023-06-05T14:06:43;6.28;;;2.88;;
68507;SDS011;55510;49.560;19.090;2023-06-05T14:09:44;5.10;;;2.40;;
68507;SDS011;55510;49.560;19.090;2023-06-05T14:12:44;5.20;;;2.27;;
68507;SDS011;55510;49.560;19.090;2023-06-05T14:15:45;6.07;;;2.40;;
68507;SDS011;55510;49.560;19.090;2023-06-05T14:18:46;5.93;;;2.40;;
68507;SDS011;55510;49.560;19.090;2023-06-05T14:21:46;5.20;;;2.40;;
68507;SDS011;55510;49.560;19.090;2023-06-05T14:24:47;4.17;;;1.90;;
68507;SDS011;55510;49.560;19.090;2023-06-05T14:27:49;3.83;;;1.73;;
68507;SDS011;55510;49.560;19.090;2023-06-05T14:30:49;5.15;;;1.80;;
68507;SDS011;55510;49.560;19.090;2023-06-05T14:33:51;4.95;;;1.90;;
68507;SDS011;55510;49.560;19.090;2023-06-05T14:36:51;6.75;;;2.15;;
68507;SDS011;55510;49.560;19.090;2023-06-05T14:39:52;5.70;;;2.50;;
68507;SDS011;55510;49.560;19.090;2023-06-05T14:42:53;16.43;;;4.80;;
68507;SDS011;55510;49.560;19.090;2023-06-05T14:45:53;9.67;;;3.60;;
68507;SDS011;55510;49.560;19.090;2023-06-05T14:48:54;7.87;;;3.40;;
68507;SDS011;55510;49.560;19.090;2023-06-05T14:51:55;6.88;;;2.83;;
68507;SDS011;55510;49.560;19.090;2023-06-05T14:54:55;5.27;;;2.50;;
68507;SDS011;55510;49.560;19.090;2023-06-05T14:57:56;4.70;;;2.63;;
68507;SDS011;55510;49.560;19.090;2023-06-05T15:00:57;4.03;;;2.17;;
68507;SDS011;55510;49.560;19.090;2023-06-05T15:03:58;6.47;;;2.40;;
68507;SDS011;55510;49.560;19.090;2023-06-05T15:06:58;6.17;;;2.77;;
68507;SDS011;55510;49.560;19.090;2023-06-05T15:09:59;8.25;;;2.90;;
68507;SDS011;55510;49.560;19.090;2023-06-05T15:13:00;12.47;;;4.00;;
68507;SDS011;55510;49.560;19.090;2023-06-05T15:16:00;7.45;;;3.45;;
68507;SDS011;55510;49.560;19.090;2023-06-05T15:19:04;6.83;;;3.40;;
68507;SDS011;55510;49.560;19.090;2023-06-05T15:22:05;7.30;;;3.53;;
68507;SDS011;55510;49.560;19.090;2023-06-05T15:25:06;6.13;;;3.00;;
68507;SDS011;55510;49.560;19.090;2023-06-05T15:28:07;7.17;;;3.70;;
68507;SDS011;55510;49.560;19.090;2023-06-05T15:31:08;10.35;;;4.32;;
68507;SDS011;55510;49.560;19.090;2023-06-05T15:34:08;10.93;;;5.57;;
68507;SDS011;55510;49.560;19.090;2023-06-05T15:37:09;10.40;;;5.43;;
68507;SDS011;55510;49.560;19.090;2023-06-05T15:40:10;11.30;;;5.03;;
68507;SDS011;55510;49.560;19.090;2023-06-05T15:43:11;9.77;;;5.35;;
68507;SDS011;55510;49.560;19.090;2023-06-05T15:46:12;8.87;;;3.90;;
68507;SDS011;55510;49.560;19.090;2023-06-05T15:49:13;9.53;;;3.87;;
68507;SDS011;55510;49.560;19.090;2023-06-05T15:52:13;7.43;;;3.13;;
68507;SDS011;55510;49.560;19.090;2023-06-05T15:55:14;7.45;;;3.70;;
68507;SDS011;55510;49.560;19.090;2023-06-05T15:58:15;7.57;;;3.97;;
68507;SDS011;55510;49.560;19.090;2023-06-05T16:01:15;6.57;;;3.35;;
68507;SDS011;55510;49.560;19.090;2023-06-05T16:04:16;7.07;;;3.83;;
68507;SDS011;55510;49.560;19.090;2023-06-05T16:07:17;8.00;;;3.75;;
68507;SDS011;55510;49.560;19.090;2023-06-05T16:10:18;7.13;;;3.93;;
68507;SDS011;55510;49.560;19.090;2023-06-05T16:13:19;9.50;;;4.57;;
68507;SDS011;55510;49.560;19.090;2023-06-05T16:16:21;10.95;;;5.43;;
68507;SDS011;55510;49.560;19.090;2023-06-05T16:19:22;10.47;;;5.23;;
68507;SDS011;55510;49.560;19.090;2023-06-05T16:22:22;11.15;;;5.57;;
68507;SDS011;55510;49.560;19.090;2023-06-05T16:25:24;13.98;;;7.10;;
68507;SDS011;55510;49.560;19.090;2023-06-05T16:28:25;14.67;;;8.30;;
68507;SDS011;55510;49.560;19.090;2023-06-05T16:31:26;20.53;;;9.70;;
68507;SDS011;55510;49.560;19.090;2023-06-05T16:34:27;21.85;;;10.45;;
68507;SDS011;55510;49.560;19.090;2023-06-05T16:37:27;22.00;;;10.23;;
68507;SDS011;55510;49.560;19.090;2023-06-05T16:40:29;25.23;;;11.13;;
68507;SDS011;55510;49.560;19.090;2023-06-05T16:43:30;25.17;;;11.77;;
68507;SDS011;55510;49.560;19.090;2023-06-05T16:46:31;23.67;;;11.25;;
68507;SDS011;55510;49.560;19.090;2023-06-05T16:49:31;24.57;;;11.77;;
68507;SDS011;55510;49.560;19.090;2023-06-05T16:52:32;22.98;;;10.70;;
68507;SDS011;55510;49.560;19.090;2023-06-05T16:55:32;22.60;;;9.90;;
68507;SDS011;55510;49.560;19.090;2023-06-05T16:58:33;27.17;;;12.60;;
68507;SDS011;55510;49.560;19.090;2023-06-05T17:01:34;40.20;;;15.53;;
68507;SDS011;55510;49.560;19.090;2023-06-05T17:04:35;34.83;;;14.00;;
68507;SDS011;55510;49.560;19.090;2023-06-05T17:07:36;30.05;;;12.85;;
68507;SDS011;55510;49.560;19.090;2023-06-05T17:10:36;25.85;;;11.82;;
68507;SDS011;55510;49.560;19.090;2023-06-05T17:13:37;21.37;;;9.30;;
68507;SDS011;55510;49.560;19.090;2023-06-05T17:16:38;24.27;;;10.32;;
68507;SDS011;55510;49.560;19.090;2023-06-05T17:19:38;19.70;;;8.73;;
68507;SDS011;55510;49.560;19.090;2023-06-05T17:22:39;19.77;;;8.15;;
68507;SDS011;55510;49.560;19.090;2023-06-05T17:25:40;16.53;;;7.10;;
68507;SDS011;55510;49.560;19.090;2023-06-05T17:28:40;15.50;;;7.40;;
68507;SDS011;55510;49.560;19.090;2023-06-05T17:31:41;13.98;;;6.85;;
68507;SDS011;55510;49.560;19.090;2023-06-05T17:34:43;16.23;;;7.00;;
68507;SDS011;55510;49.560;19.090;2023-06-05T17:37:43;11.70;;;5.60;;
68507;SDS011;55510;49.560;19.090;2023-06-05T17:40:45;12.43;;;5.28;;
68507;SDS011;55510;49.560;19.090;2023-06-05T17:43:48;14.63;;;6.73;;
68507;SDS011;55510;49.560;19.090;2023-06-05T17:46:50;13.05;;;6.38;;
68507;SDS011;55510;49.560;19.090;2023-06-05T17:49:51;12.13;;;6.03;;
68507;SDS011;55510;49.560;19.090;2023-06-05T17:52:52;12.57;;;6.37;;
68507;SDS011;55510;49.560;19.090;2023-06-05T17:55:52;14.15;;;6.32;;
68507;SDS011;55510;49.560;19.090;2023-06-05T17:58:53;15.07;;;6.80;;
68507;SDS011;55510;49.560;19.090;2023-06-05T18:01:54;15.00;;;6.47;;
68507;SDS011;55510;49.560;19.090;2023-06-05T18:04:54;15.17;;;6.67;;
68507;SDS011;55510;49.560;19.090;2023-06-05T18:07:56;16.77;;;7.50;;
68507;SDS011;55510;49.560;19.090;2023-06-05T18:10:57;21.13;;;8.73;;
68507;SDS011;55510;49.560;19.090;2023-06-05T18:13:58;16.15;;;8.05;;
68507;SDS011;55510;49.560;19.090;2023-06-05T18:16:59;16.30;;;8.50;;